Hauptseite
METAR-TAF:

METAR-TAF

Flughäfen :

Montichiari

Brescia, Italien

Breite: 45-24-02N, Länge: 010-18-59E, Höhe: 104 m

Beobachtung

Neuester Wetterbericht von vor 54 Minuten, um 02:50 UTC
Wind 7 kt aus Ost/Nordost
Temperatur 15°C
Luftfeuchtigkeit 72%
Luftdruck 1019 hPa
Sichtweite 10 km oder mehr
keine Wolken unter 1500 m und keine Kumulonimbus oder Gewitterwolken

METAR: LIPO 160250Z 06007KT CAVOK 15/10 Q1019

Zeit: 05:44 (03:44 UTC)

Prognose

Neuester Wetterbericht von vor 4 Stunden und 44 Minuten, um 23:00 UTC
Gültige Prognose vom 16 um 00 UTC bis 16 um 24 UTC
Wind 5 kt aus unterschiedlichen Richtungen
Sichtweite 10 km oder mehr
Aufgelockert bewölkt in der Höhe von 7000 ft

TAF: LIPO 152300Z 1600/1624 VRB05KT 9999 SCT070

Wetterbeobachtungen und Prognosen von mehr als 4000 Flughäfen (METAR und TAF Bericht).

Die verfügbaren Stationen werden durch gelbe und rote Markierungen auf der Karte dargestellt.

Führen Sie die Maus auf sie, um den Namen der Station zu sehen.

Darauf klicken, um die Beobachtung von Wetterbeobachtungen und Prognosen zu sehen.

Um die Karte zu ändern : klicken Sie auf den grünen Tasten mit einem schwarzen Kreuz Zum Vergrößern, auf den grünen Button mit einem Gedankenstrich zu verkleinern, oder auf die grünen Pfeile für benachbarte Karten.


METAR-TAF: